createdAt,value
2022-11-10T00:02:37.315Z,96540.00
2022-11-10T00:07:13.601Z,96550.00
2022-11-10T00:11:18.148Z,96551.00
2022-11-10T00:15:38.626Z,96559.00
2022-11-10T00:19:41.733Z,96564.00
2022-11-10T00:23:45.092Z,96567.00
2022-11-10T00:27:49.987Z,96571.00
2022-11-10T00:32:23.737Z,96576.00
2022-11-10T00:36:26.872Z,96573.00
2022-11-10T00:40:29.884Z,96581.00
2022-11-10T00:44:34.288Z,96587.00
2022-11-10T00:48:37.389Z,96584.00
2022-11-10T00:53:14.459Z,96592.00
2022-11-10T00:57:17.493Z,96601.00
2022-11-10T01:01:24.395Z,96602.00
2022-11-10T01:05:27.450Z,96611.00
2022-11-10T01:10:04.933Z,96613.00
2022-11-10T01:14:08.008Z,96615.00
2022-11-10T01:18:12.429Z,96618.00
2022-11-10T01:22:15.457Z,96626.00
2022-11-10T01:26:19.205Z,96630.00
2022-11-10T01:30:57.812Z,96639.00
2022-11-10T01:35:02.230Z,96642.00
2022-11-10T01:39:05.365Z,96644.00
2022-11-10T01:43:12.436Z,96637.00
2022-11-10T01:47:15.440Z,96647.00
2022-11-10T01:51:53.269Z,96641.00
2022-11-10T01:55:58.649Z,96645.00
2022-11-10T02:00:02.916Z,96655.00
2022-11-10T02:04:08.686Z,96659.00
2022-11-10T02:08:43.524Z,96666.00
2022-11-10T02:12:48.829Z,96668.00
2022-11-10T02:17:25.561Z,96674.00
2022-11-10T02:21:30.007Z,96670.00
2022-11-10T02:25:34.005Z,96671.00
2022-11-10T02:29:37.033Z,96680.00
2022-11-10T02:33:40.340Z,96692.00
2022-11-10T02:37:44.971Z,96692.00
2022-11-10T02:41:47.938Z,96690.00
2022-11-10T02:45:51.126Z,96690.00
2022-11-10T02:49:54.402Z,96700.00
2022-11-10T02:53:58.872Z,96703.00
2022-11-10T02:58:32.853Z,96706.00
2022-11-10T03:02:36.090Z,96708.00
2022-11-10T03:06:39.193Z,96722.00
2022-11-10T03:10:43.626Z,96715.00
2022-11-10T03:14:46.622Z,96725.00
2022-11-10T03:19:23.492Z,96736.00
2022-11-10T03:23:26.526Z,96743.00
2022-11-10T03:27:30.917Z,96734.00
2022-11-10T03:31:33.933Z,96747.00
2022-11-10T03:35:37.078Z,96751.00
2022-11-10T03:39:58.143Z,96752.00
2022-11-10T03:44:02.583Z,96765.00
2022-11-10T03:48:05.801Z,96779.00
2022-11-10T03:52:09.047Z,96789.00
2022-11-10T03:56:45.969Z,96794.00
2022-11-10T04:00:50.366Z,96802.00
2022-11-10T04:05:41.804Z,96812.00
2022-11-10T04:09:44.837Z,96818.00
2022-11-10T04:14:39.172Z,96816.00
2022-11-10T04:18:43.576Z,96817.00
2022-11-10T04:23:29.141Z,96826.00
2022-11-10T04:27:33.511Z,96817.00
2022-11-10T04:32:10.661Z,96823.00
2022-11-10T04:36:47.284Z,96844.00
2022-11-10T04:41:45.269Z,96846.00
2022-11-10T04:45:49.807Z,96848.00
2022-11-10T04:50:23.312Z,96848.00
2022-11-10T04:54:26.480Z,96870.00
2022-11-10T04:58:29.494Z,96870.00
2022-11-10T05:02:39.261Z,96867.00
2022-11-10T05:07:07.284Z,96872.00
2022-11-10T05:11:44.213Z,96874.00
2022-11-10T05:16:20.783Z,96884.00
2022-11-10T05:20:58.723Z,96884.00
2022-11-10T05:25:01.795Z,96894.00
2022-11-10T05:29:04.849Z,96890.00
2022-11-10T05:33:08.068Z,96898.00
2022-11-10T05:37:12.484Z,96907.00
2022-11-10T05:41:15.502Z,96909.00
2022-11-10T05:45:52.236Z,96915.00
2022-11-10T05:49:55.196Z,96921.00
2022-11-10T05:53:59.658Z,96938.00
2022-11-10T05:58:02.833Z,96932.00
2022-11-10T06:02:39.453Z,96941.00
2022-11-10T06:06:42.510Z,96961.00
2022-11-10T06:10:46.905Z,96964.00
2022-11-10T06:14:49.918Z,96970.00
2022-11-10T06:18:52.948Z,96993.00
2022-11-10T06:23:01.120Z,97000.00
2022-11-10T06:27:36.315Z,97009.00
2022-11-10T06:31:39.378Z,97024.00
2022-11-10T06:35:42.352Z,97035.00
2022-11-10T06:39:46.598Z,97039.00
2022-11-10T06:43:51.257Z,97048.00
2022-11-10T06:48:00.948Z,97064.00
2022-11-10T06:52:04.033Z,97073.00
2022-11-10T06:56:40.936Z,97073.00
2022-11-10T07:00:45.455Z,97084.00
2022-11-10T07:04:50.755Z,97083.00
2022-11-10T07:08:53.791Z,97088.00
2022-11-10T07:13:00.036Z,97092.00
2022-11-10T07:17:04.426Z,97094.00
2022-11-10T07:21:37.842Z,97102.00
2022-11-10T07:25:40.892Z,97118.00
2022-11-10T07:29:43.914Z,97125.00
2022-11-10T07:33:53.339Z,97134.00
2022-11-10T07:38:21.405Z,97144.00
2022-11-10T07:42:24.552Z,97150.00
2022-11-10T07:46:27.549Z,97160.00
2022-11-10T07:50:34.001Z,97168.00
2022-11-10T07:54:36.978Z,97170.00
2022-11-10T07:58:40.215Z,97181.00
2022-11-10T08:02:43.233Z,97184.00
2022-11-10T08:07:21.705Z,97188.00
2022-11-10T08:11:24.828Z,97201.00
2022-11-10T08:15:29.393Z,97194.00
2022-11-10T08:19:32.450Z,97197.00
2022-11-10T08:23:36.877Z,97199.00
2022-11-10T08:28:12.443Z,97210.00
2022-11-10T08:32:15.442Z,97224.00
2022-11-10T08:36:18.429Z,97229.00
2022-11-10T08:40:24.350Z,97238.00
2022-11-10T08:45:01.308Z,97243.00
2022-11-10T08:49:04.603Z,97247.00
2022-11-10T08:53:09.382Z,97257.00
2022-11-10T08:57:13.892Z,97271.00
2022-11-10T09:01:16.900Z,97277.00
2022-11-10T09:05:19.951Z,97281.00
2022-11-10T09:09:22.980Z,97278.00
2022-11-10T09:13:30.294Z,97278.00
2022-11-10T09:17:34.045Z,97288.00
2022-11-10T09:21:37.148Z,97298.00
2022-11-10T09:25:40.461Z,97310.00
2022-11-10T09:29:44.957Z,97312.00
2022-11-10T09:33:48.018Z,97319.00
2022-11-10T09:37:51.039Z,97315.00
2022-11-10T09:42:27.763Z,97321.00
2022-11-10T09:46:36.650Z,97336.00
2022-11-10T09:50:45.630Z,97339.00
2022-11-10T09:54:55.086Z,97343.00
2022-11-10T09:58:58.221Z,97339.00
2022-11-10T10:03:04.645Z,97339.00
2022-11-10T10:07:43.428Z,97344.00
2022-11-10T10:11:55.437Z,97347.00
2022-11-10T10:16:11.816Z,97359.00
2022-11-10T10:20:21.314Z,97366.00
2022-11-10T10:24:27.747Z,97379.00
2022-11-10T10:28:37.009Z,97384.00
2022-11-10T10:33:14.506Z,97382.00
2022-11-10T10:37:24.958Z,97381.00
2022-11-10T10:41:29.942Z,97377.00
2022-11-10T10:45:32.983Z,97381.00
2022-11-10T10:49:36.418Z,97381.00
2022-11-10T10:53:48.836Z,97373.00
2022-11-10T10:58:24.823Z,97372.00
2022-11-10T11:02:30.286Z,97366.00
2022-11-10T11:06:36.383Z,97367.00
2022-11-10T11:10:46.375Z,97359.00
2022-11-10T11:14:49.391Z,97360.00
2022-11-10T11:18:52.478Z,97357.00
2022-11-10T11:23:00.316Z,97364.00
2022-11-10T11:27:10.507Z,97363.00
2022-11-10T11:31:45.729Z,97371.00
2022-11-10T11:35:51.764Z,97375.00
2022-11-10T11:40:05.932Z,97382.00
2022-11-10T11:44:38.126Z,97389.00
2022-11-10T11:49:26.825Z,97396.00
2022-11-10T11:53:41.814Z,97395.00
2022-11-10T11:58:14.891Z,97385.00
2022-11-10T12:02:38.569Z,97382.00
2022-11-10T12:07:11.834Z,97376.00
2022-11-10T12:11:26.606Z,97369.00
2022-11-10T12:15:54.639Z,97363.00
2022-11-10T12:20:08.517Z,97360.00
2022-11-10T12:24:39.292Z,97357.00
2022-11-10T12:28:47.408Z,97364.00
2022-11-10T12:33:26.649Z,97374.00
2022-11-10T12:37:36.776Z,97371.00
2022-11-10T12:41:45.554Z,97370.00
2022-11-10T12:45:55.481Z,97372.00
2022-11-10T12:50:27.736Z,97376.00
2022-11-10T12:54:32.834Z,97376.00
2022-11-10T12:58:35.956Z,97375.00
2022-11-10T13:03:16.985Z,97393.00
2022-11-10T13:07:25.644Z,97390.00
2022-11-10T13:11:34.412Z,97383.00
2022-11-10T13:15:55.296Z,97380.00
2022-11-10T13:20:36.025Z,97378.00
2022-11-10T13:24:40.872Z,97386.00
2022-11-10T13:29:05.115Z,97390.00
2022-11-10T13:33:37.707Z,97385.00
2022-11-10T13:38:21.355Z,97393.00
2022-11-10T13:42:24.640Z,97392.00
2022-11-10T13:46:37.474Z,97400.00
2022-11-10T13:51:11.051Z,97412.00
2022-11-10T13:55:22.884Z,97409.00
2022-11-10T13:59:28.675Z,97410.00
2022-11-10T14:03:57.529Z,97414.00
2022-11-10T14:08:07.684Z,97415.00
2022-11-10T14:12:21.324Z,97424.00
2022-11-10T14:16:27.098Z,97431.00
2022-11-10T14:20:39.117Z,97435.00
2022-11-10T14:24:57.536Z,97432.00
2022-11-10T14:29:35.918Z,97424.00
2022-11-10T14:33:39.016Z,97432.00
2022-11-10T14:37:44.866Z,97431.00
2022-11-10T14:41:49.368Z,97439.00
2022-11-10T14:45:53.086Z,97437.00
2022-11-10T14:50:17.167Z,97437.00
2022-11-10T14:54:44.922Z,97443.00
2022-11-10T14:58:49.908Z,97456.00
2022-11-10T15:02:54.560Z,97467.00
2022-11-10T15:07:01.126Z,97461.00
2022-11-10T15:11:06.210Z,97470.00
2022-11-10T15:15:22.641Z,97471.00
2022-11-10T15:19:29.080Z,97475.00
2022-11-10T15:23:35.750Z,97486.00
2022-11-10T15:28:15.965Z,97488.00
2022-11-10T15:32:22.615Z,97494.00
2022-11-10T15:38:31.292Z,97505.00
2022-11-10T15:42:34.389Z,97493.00
2022-11-10T15:46:37.385Z,97501.00
2022-11-10T15:50:41.349Z,97510.00
2022-11-10T15:55:17.887Z,97514.00
2022-11-10T15:59:22.322Z,97521.00
2022-11-10T16:03:56.425Z,97522.00
2022-11-10T16:07:59.455Z,97519.00
2022-11-10T16:12:02.767Z,97526.00
2022-11-10T16:16:41.860Z,97530.00
2022-11-10T16:20:44.846Z,97525.00
2022-11-10T16:24:47.877Z,97524.00
2022-11-10T16:28:51.542Z,97532.00
2022-11-10T16:32:56.292Z,97535.00
2022-11-10T16:37:54.112Z,97540.00
2022-11-10T16:41:57.165Z,97542.00
2022-11-10T16:46:03.553Z,97534.00
2022-11-10T16:50:39.244Z,97552.00
2022-11-10T16:54:42.250Z,97570.00
2022-11-10T16:58:45.255Z,97571.00
2022-11-10T17:02:58.637Z,97568.00
2022-11-10T17:07:25.954Z,97569.00
2022-11-10T17:11:28.992Z,97570.00
2022-11-10T17:16:07.604Z,97571.00
2022-11-10T17:20:18.529Z,97580.00
2022-11-10T17:24:23.016Z,97568.00
2022-11-10T17:28:56.944Z,97583.00
2022-11-10T17:33:05.258Z,97579.00
2022-11-10T17:37:13.543Z,97586.00
2022-11-10T17:41:19.310Z,97586.00
2022-11-10T17:45:24.450Z,97594.00
2022-11-10T17:49:27.457Z,97588.00
2022-11-10T17:53:30.838Z,97602.00
2022-11-10T17:57:35.240Z,97608.00
2022-11-10T18:01:38.341Z,97618.00
2022-11-10T18:05:41.517Z,97614.00
2022-11-10T18:09:44.657Z,97616.00
2022-11-10T18:13:49.230Z,97604.00
2022-11-10T18:17:52.246Z,97606.00
2022-11-10T18:21:55.223Z,97613.00
2022-11-10T18:26:31.875Z,97607.00
2022-11-10T18:30:36.726Z,97604.00
2022-11-10T18:34:39.705Z,97613.00
2022-11-10T18:38:42.729Z,97610.00
2022-11-10T18:42:45.763Z,97612.00
2022-11-10T18:46:50.262Z,97604.00
2022-11-10T18:50:53.273Z,97612.00
2022-11-10T18:54:56.346Z,97613.00
2022-11-10T18:59:32.928Z,97606.00
2022-11-10T19:03:38.428Z,97607.00
2022-11-10T19:08:15.184Z,97608.00
2022-11-10T19:12:52.053Z,97611.00
2022-11-10T19:17:29.125Z,97612.00
2022-11-10T19:22:07.935Z,97632.00
2022-11-10T19:26:42.176Z,97645.00
2022-11-10T19:30:46.442Z,97659.00
2022-11-10T19:35:20.362Z,97651.00
2022-11-10T19:39:24.793Z,97661.00
2022-11-10T19:43:27.802Z,97665.00
2022-11-10T19:47:31.359Z,97677.00
2022-11-10T19:51:34.422Z,97674.00
2022-11-10T19:56:10.950Z,97682.00
2022-11-10T20:00:17.590Z,97688.00
2022-11-10T20:05:05.902Z,97699.00
2022-11-10T20:09:24.073Z,97693.00
2022-11-10T20:14:01.566Z,97689.00
2022-11-10T20:18:06.457Z,97693.00
2022-11-10T20:22:40.470Z,97700.00
2022-11-10T20:27:18.005Z,97712.00
2022-11-10T20:31:51.966Z,97719.00
2022-11-10T20:35:57.990Z,97714.00
2022-11-10T20:40:02.556Z,97713.00
2022-11-10T20:44:05.983Z,97703.00
2022-11-10T20:48:43.636Z,97701.00
2022-11-10T20:53:22.352Z,97715.00
2022-11-10T20:57:56.453Z,97716.00
2022-11-10T21:02:32.942Z,97711.00
2022-11-10T21:07:09.881Z,97695.00
2022-11-10T21:11:34.540Z,97699.00
2022-11-10T21:16:32.332Z,97698.00
2022-11-10T21:20:36.124Z,97707.00
2022-11-10T21:25:10.099Z,97715.00
2022-11-10T21:29:48.169Z,97712.00
2022-11-10T21:34:21.843Z,97714.00
2022-11-10T21:39:19.394Z,97697.00
2022-11-10T21:43:56.098Z,97710.00
2022-11-10T21:48:02.757Z,97720.00
2022-11-10T21:52:05.802Z,97717.00
2022-11-10T21:56:42.418Z,97713.00
2022-11-10T22:00:45.226Z,97722.00
2022-11-10T22:04:49.386Z,97723.00
2022-11-10T22:08:52.536Z,97712.00
2022-11-10T22:13:12.901Z,97717.00
2022-11-10T22:17:34.306Z,97716.00
2022-11-10T22:21:38.542Z,97725.00
2022-11-10T22:26:12.462Z,97729.00
2022-11-10T22:30:15.432Z,97724.00
2022-11-10T22:34:19.292Z,97717.00
2022-11-10T22:38:23.493Z,97725.00
2022-11-10T22:42:43.871Z,97734.00
2022-11-10T22:47:01.818Z,97723.00
2022-11-10T22:51:04.913Z,97732.00
2022-11-10T22:55:09.409Z,97733.00
2022-11-10T22:59:13.053Z,97721.00
2022-11-10T23:03:49.766Z,97716.00
2022-11-10T23:07:52.544Z,97718.00
2022-11-10T23:11:56.684Z,97714.00
2022-11-10T23:16:02.174Z,97711.00
2022-11-10T23:20:35.599Z,97724.00
2022-11-10T23:24:38.362Z,97728.00
2022-11-10T23:28:43.321Z,97728.00
2022-11-10T23:32:46.063Z,97743.00
2022-11-10T23:36:49.113Z,97745.00
2022-11-10T23:41:27.069Z,97738.00
2022-11-10T23:46:00.062Z,97737.00
2022-11-10T23:49:54.445Z,97739.00
2022-11-10T23:53:57.464Z,97731.00
2022-11-10T23:58:00.474Z,97738.00
